Time;durP1;ratioP1;P1;durP2;ratioP2;P2;SDS_P1;SDS_P2;PMS_P1;PMS_P2;Temp;Humidity;BMP_temperature;BMP_pressure;BME280_temperature;BME280_humidity;BME280_pressure;Samples;Min_cycle;Max_cycle;Signal;HPM_P1;HPM_P2
2023/04/17 00:02:24;;;;;;;12.53;7.50;;;;;;;;;;4976192;28;20030;-64
2023/04/17 00:04:51;;;;;;;13.60;7.97;;;;;;;;;;4973399;28;20477;-65
2023/04/17 00:07:16;;;;;;;;;;;;;;;;;;4973254;28;20019;-65
2023/04/17 00:09:41;;;;;;;13.10;7.07;;;;;;;;;;4976301;28;20338;-65
2023/04/17 00:12:06;;;;;;;13.30;7.80;;;;;;;;;;4974106;28;20039;-66
2023/04/17 00:14:31;;;;;;;15.30;8.50;;;;;;;;;;4970596;28;20497;-66
2023/04/17 00:16:56;;;;;;;14.63;8.27;;;;;;;;;;4975511;28;20022;-71
2023/04/17 00:19:22;;;;;;;13.25;7.57;;;;;;;;;;4974230;28;20477;-68
2023/04/17 00:21:47;;;;;;;12.05;7.53;;;;;;;;;;4971188;28;20169;-66
2023/04/17 00:24:13;;;;;;;14.35;8.52;;;;;;;;;;4971397;28;20026;-66
2023/04/17 00:26:38;;;;;;;13.10;7.80;;;;;;;;;;4969100;28;20039;-67
2023/04/17 00:29:03;;;;;;;14.63;8.77;;;;;;;;;;4971889;28;20442;-65
2023/04/17 00:31:28;;;;;;;16.63;9.27;;;;;;;;;;4975408;28;20030;-66
2023/04/17 00:33:55;;;;;;;13.30;7.80;;;;;;;;;;4975069;28;20458;-70
2023/04/17 00:36:20;;;;;;;13.43;8.02;;;;;;;;;;4973815;28;20788;-69
2023/04/17 00:38:45;;;;;;;15.17;8.47;;;;;;;;;;4971431;28;20019;-66
2023/04/17 00:41:10;;;;;;;15.03;9.07;;;;;;;;;;4979736;28;20023;-68
2023/04/17 00:43:35;;;;;;;14.13;8.27;;;;;;;;;;4978046;28;20027;-65
2023/04/17 00:46:01;;;;;;;13.55;8.18;;;;;;;;;;4977495;28;20084;-65
2023/04/17 00:48:26;;;;;;;15.33;9.53;;;;;;;;;;4974221;28;20030;-68
2023/04/17 00:50:51;;;;;;;14.87;9.20;;;;;;;;;;4973392;28;20030;-65
2023/04/17 00:53:17;;;;;;;13.73;8.55;;;;;;;;;;4972763;28;20485;-66
2023/04/17 00:55:43;;;;;;;14.98;8.90;;;;;;;;;;4973906;28;20031;-68
2023/04/17 00:58:09;;;;;;;14.27;8.68;;;;;;;;;;4973744;28;20062;-68
2023/04/17 01:00:34;;;;;;;14.32;8.32;;;;;;;;;;4975699;28;20065;-69
2023/04/17 01:02:59;;;;;;;14.23;8.50;;;;;;;;;;4975862;28;20014;-66
2023/04/17 01:05:26;;;;;;;12.93;8.15;;;;;;;;;;4966536;28;20078;-67
2023/04/17 01:07:51;;;;;;;15.60;8.80;;;;;;;;;;4971117;28;20379;-66
2023/04/17 01:10:17;;;;;;;14.18;8.60;;;;;;;;;;4969156;28;20026;-69
2023/04/17 01:12:45;;;;;;;14.45;8.45;;;;;;;;;;4981522;28;20042;-66
2023/04/17 01:15:10;;;;;;;13.07;7.80;;;;;;;;;;4973557;28;20031;-65
2023/04/17 01:17:36;;;;;;;13.10;8.43;;;;;;;;;;4975054;28;20027;-65
2023/04/17 01:20:04;;;;;;;15.60;8.40;;;;;;;;;;4983579;28;20029;-67
2023/04/17 01:22:30;;;;;;;14.05;8.73;;;;;;;;;;4983198;28;20023;-65
2023/04/17 01:24:55;;;;;;;16.02;8.90;;;;;;;;;;4979543;28;20144;-69
2023/04/17 01:27:21;;;;;;;11.98;7.55;;;;;;;;;;4964150;28;20063;-66
2023/04/17 01:29:46;;;;;;;13.55;8.13;;;;;;;;;;4971807;28;20022;-66
2023/04/17 01:32:12;;;;;;;13.43;8.10;;;;;;;;;;4969889;28;20134;-66
2023/04/17 01:34:37;;;;;;;12.77;7.67;;;;;;;;;;4973143;28;20019;-69
2023/04/17 01:37:02;;;;;;;12.98;8.05;;;;;;;;;;4971509;28;20050;-67
2023/04/17 01:39:27;;;;;;;13.20;8.20;;;;;;;;;;4978070;28;20030;-66
2023/04/17 01:41:53;;;;;;;11.13;7.17;;;;;;;;;;4986300;28;20062;-66
2023/04/17 01:44:18;;;;;;;13.18;7.20;;;;;;;;;;4972624;28;20076;-67
2023/04/17 01:46:43;;;;;;;10.88;6.40;;;;;;;;;;4967028;28;20027;-66
2023/04/17 01:49:09;;;;;;;10.40;6.40;;;;;;;;;;4977383;28;20037;-65
2023/04/17 01:51:34;;;;;;;11.48;6.93;;;;;;;;;;4973475;28;20506;-67
2023/04/17 01:53:59;;;;;;;10.55;6.32;;;;;;;;;;4969381;28;20030;-73
2023/04/17 01:56:25;;;;;;;12.77;7.47;;;;;;;;;;4975016;28;20403;-69
2023/04/17 01:58:51;;;;;;;11.13;6.53;;;;;;;;;;4970202;28;20019;-67
2023/04/17 02:01:16;;;;;;;10.75;5.95;;;;;;;;;;4969549;28;20033;-68
2023/04/17 02:03:41;;;;;;;9.88;5.75;;;;;;;;;;4978723;28;20034;-65
2023/04/17 02:06:06;;;;;;;10.00;5.77;;;;;;;;;;4973042;28;20035;-71
2023/04/17 02:08:33;;;;;;;8.70;4.95;;;;;;;;;;4971928;28;20026;-68
2023/04/17 02:10:58;;;;;;;9.68;5.07;;;;;;;;;;4976833;28;20639;-66
2023/04/17 02:13:23;;;;;;;9.03;5.40;;;;;;;;;;4970693;28;20018;-71
2023/04/17 02:15:48;;;;;;;9.82;5.30;;;;;;;;;;4973528;28;20023;-65
2023/04/17 02:18:14;;;;;;;8.35;4.82;;;;;;;;;;4971709;28;20085;-70
2023/04/17 02:20:39;;;;;;;8.27;4.47;;;;;;;;;;4982818;28;20069;-67
2023/04/17 02:23:05;;;;;;;8.18;4.72;;;;;;;;;;4978673;28;20034;-67
2023/04/17 02:25:30;;;;;;;8.40;4.40;;;;;;;;;;4978463;28;20034;-66
2023/04/17 02:27:56;;;;;;;7.93;4.38;;;;;;;;;;4975749;28;20037;-66
2023/04/17 02:30:21;;;;;;;7.13;3.95;;;;;;;;;;4980875;28;20019;-70
2023/04/17 02:32:48;;;;;;;7.28;4.05;;;;;;;;;;4983340;28;20053;-69
2023/04/17 02:35:13;;;;;;;7.65;4.15;;;;;;;;;;4986230;28;20034;-78
2023/04/17 02:37:38;;;;;;;8.23;4.43;;;;;;;;;;4985264;28;20069;-67
2023/04/17 02:40:06;;;;;;;7.07;3.63;;;;;;;;;;4983052;28;20037;-65
2023/04/17 02:42:32;;;;;;;7.88;4.30;;;;;;;;;;4971959;28;20078;-67
2023/04/17 02:44:58;;;;;;;6.90;3.70;;;;;;;;;;4961590;28;21789;-65
2023/04/17 02:47:23;;;;;;;8.57;4.60;;;;;;;;;;4961953;28;20043;-65
2023/04/17 02:49:48;;;;;;;7.53;4.10;;;;;;;;;;4969243;28;20038;-71
2023/04/17 02:52:13;;;;;;;7.07;3.77;;;;;;;;;;4974571;28;20046;-73
2023/04/17 02:54:41;;;;;;;7.33;4.10;;;;;;;;;;4975060;28;20402;-70
2023/04/17 02:57:06;;;;;;;7.82;4.28;;;;;;;;;;4970598;28;20030;-71
2023/04/17 02:59:31;;;;;;;7.40;4.20;;;;;;;;;;4970242;28;20027;-66
2023/04/17 03:02:00;;;;;;;8.52;4.80;;;;;;;;;;4969599;28;20496;-65
2023/04/17 03:04:26;;;;;;;9.93;5.63;;;;;;;;;;4966580;28;20026;-65
2023/04/17 03:06:51;;;;;;;;;;;;;;;;;;4970805;28;20042;-64
2023/04/17 03:09:17;;;;;;;9.70;5.18;;;;;;;;;;4969594;28;19910;-67
2023/04/17 03:11:42;;;;;;;8.90;5.03;;;;;;;;;;4971074;28;20027;-65
2023/04/17 03:14:09;;;;;;;9.33;5.00;;;;;;;;;;4972024;28;20102;-67
2023/04/17 03:16:34;;;;;;;;;;;;;;;;;;4970283;28;20034;-68
2023/04/17 03:19:00;;;;;;;9.70;4.90;;;;;;;;;;4977851;28;19914;-66
2023/04/17 03:21:25;;;;;;;11.43;6.18;;;;;;;;;;4969783;28;20026;-70
2023/04/17 03:23:50;;;;;;;13.43;7.05;;;;;;;;;;4968850;28;20015;-66
2023/04/17 03:26:16;;;;;;;11.52;6.38;;;;;;;;;;4967732;28;20114;-65
2023/04/17 03:28:42;;;;;;;10.95;6.18;;;;;;;;;;4970094;28;20050;-65
2023/04/17 03:31:07;;;;;;;10.95;6.00;;;;;;;;;;4972379;28;20054;-68
2023/04/17 03:33:32;;;;;;;12.63;6.57;;;;;;;;;;4971980;28;20034;-64
2023/04/17 03:35:57;;;;;;;9.30;5.30;;;;;;;;;;4967185;28;20023;-67
2023/04/17 03:38:22;;;;;;;9.05;5.20;;;;;;;;;;4970059;28;20030;-64
2023/04/17 03:40:47;;;;;;;10.10;5.65;;;;;;;;;;4967569;28;20018;-66
2023/04/17 03:43:12;;;;;;;10.00;5.97;;;;;;;;;;4969333;28;20387;-65
2023/04/17 03:45:38;;;;;;;11.07;6.13;;;;;;;;;;4974378;28;20090;-65
2023/04/17 03:48:03;;;;;;;10.68;6.05;;;;;;;;;;4966509;28;20110;-70
2023/04/17 03:50:28;;;;;;;11.30;5.60;;;;;;;;;;4971565;28;20035;-64
2023/04/17 03:52:53;;;;;;;9.37;5.37;;;;;;;;;;4975532;28;20039;-74
2023/04/17 03:55:18;;;;;;;10.57;5.70;;;;;;;;;;4968361;28;20026;-66
2023/04/17 03:57:44;;;;;;;10.23;5.53;;;;;;;;;;4972274;28;20494;-68
2023/04/17 04:00:09;;;;;;;11.45;5.65;;;;;;;;;;4967440;28;20126;-64
2023/04/17 04:02:35;;;;;;;9.02;5.68;;;;;;;;;;4971531;28;20059;-65
2023/04/17 04:05:00;;;;;;;9.68;5.28;;;;;;;;;;4974704;28;20038;-67
2023/04/17 04:07:25;;;;;;;10.60;5.93;;;;;;;;;;4969959;28;20085;-65
2023/04/17 04:09:50;;;;;;;11.23;5.90;;;;;;;;;;4971179;28;20023;-65
2023/04/17 04:12:15;;;;;;;10.00;5.10;;;;;;;;;;4964601;28;20023;-66
2023/04/17 04:14:41;;;;;;;16.30;6.50;;;;;;;;;;4973189;28;20019;-65
2023/04/17 04:17:06;;;;;;;11.95;5.38;;;;;;;;;;4977134;28;20030;-66
2023/04/17 04:19:31;;;;;;;11.10;5.72;;;;;;;;;;4980750;28;20023;-65
2023/04/17 04:21:57;;;;;;;8.57;4.93;;;;;;;;;;4972211;28;20483;-63
2023/04/17 04:24:22;;;;;;;10.10;5.35;;;;;;;;;;4971894;28;20033;-64
2023/04/17 04:26:48;;;;;;;12.10;5.78;;;;;;;;;;4971035;28;20030;-65
2023/04/17 04:29:14;;;;;;;10.48;5.05;;;;;;;;;;4975068;28;20030;-65
2023/04/17 04:31:39;;;;;;;9.02;4.78;;;;;;;;;;4979669;28;20397;-67
2023/04/17 04:34:05;;;;;;;8.93;4.85;;;;;;;;;;4966013;28;20102;-67
2023/04/17 04:36:30;;;;;;;11.57;5.72;;;;;;;;;;4967529;28;20406;-65
2023/04/17 04:38:58;;;;;;;8.68;5.05;;;;;;;;;;4964788;28;20454;-66
2023/04/17 04:41:24;;;;;;;10.32;5.07;;;;;;;;;;4964666;28;20030;-66
2023/04/17 04:43:49;;;;;;;9.32;5.20;;;;;;;;;;4962666;28;20049;-67
2023/04/17 04:46:14;;;;;;;9.50;4.93;;;;;;;;;;4964616;28;20050;-70
2023/04/17 04:48:39;;;;;;;8.90;5.00;;;;;;;;;;4970695;28;20026;-68
2023/04/17 04:51:06;;;;;;;10.77;5.10;;;;;;;;;;4972222;28;20442;-67
2023/04/17 04:53:31;;;;;;;8.98;4.57;;;;;;;;;;4969990;28;20339;-65
2023/04/17 04:55:56;;;;;;;9.55;5.00;;;;;;;;;;4973617;28;20074;-65
2023/04/17 04:58:21;;;;;;;10.80;4.97;;;;;;;;;;4970826;28;20038;-66
2023/04/17 05:00:46;;;;;;;8.67;4.23;;;;;;;;;;4978247;28;20022;-64
2023/04/17 05:03:11;;;;;;;10.65;5.18;;;;;;;;;;4974253;28;20049;-66
2023/04/17 05:05:37;;;;;;;7.50;4.00;;;;;;;;;;4962965;28;20034;-66
2023/04/17 05:08:02;;;;;;;8.43;4.05;;;;;;;;;;4972064;28;20037;-65
2023/04/17 05:10:27;;;;;;;6.90;3.33;;;;;;;;;;4974575;28;20086;-67
2023/04/17 05:12:52;;;;;;;5.97;3.00;;;;;;;;;;4977138;28;20030;-68
2023/04/17 05:15:17;;;;;;;6.95;3.20;;;;;;;;;;4977893;28;20094;-68
2023/04/17 05:17:43;;;;;;;6.85;3.40;;;;;;;;;;4977720;28;20033;-67
2023/04/17 05:20:08;;;;;;;6.32;2.80;;;;;;;;;;4986072;28;20038;-65
2023/04/17 05:22:34;;;;;;;4.88;2.35;;;;;;;;;;4979337;28;20109;-66
2023/04/17 05:24:59;;;;;;;5.60;2.60;;;;;;;;;;4989746;28;20061;-66
2023/04/17 05:27:25;;;;;;;4.70;2.10;;;;;;;;;;4973213;28;20050;-69
2023/04/17 05:29:51;;;;;;;5.05;2.45;;;;;;;;;;4976940;28;20394;-64
2023/04/17 05:32:16;;;;;;;4.47;2.00;;;;;;;;;;4980114;28;20042;-63
2023/04/17 05:34:41;;;;;;;4.63;1.97;;;;;;;;;;4974624;28;20490;-64
2023/04/17 05:37:06;;;;;;;6.63;2.35;;;;;;;;;;4973018;28;20027;-64
2023/04/17 05:39:31;;;;;;;4.25;1.88;;;;;;;;;;4977169;28;20047;-65
2023/04/17 05:41:56;;;;;;;3.97;1.70;;;;;;;;;;4970116;28;20026;-64
2023/04/17 05:44:22;;;;;;;4.10;1.97;;;;;;;;;;4975702;28;20080;-69
2023/04/17 05:46:47;;;;;;;5.03;2.13;;;;;;;;;;4974051;28;20042;-66
2023/04/17 05:49:12;;;;;;;5.73;2.13;;;;;;;;;;4977044;28;20023;-66
2023/04/17 05:51:37;;;;;;;4.60;1.90;;;;;;;;;;4974156;28;20123;-64
2023/04/17 05:54:02;;;;;;;5.40;2.20;;;;;;;;;;4973824;28;20027;-64
2023/04/17 05:56:27;;;;;;;4.70;2.20;;;;;;;;;;4972101;28;20038;-68
2023/04/17 05:58:53;;;;;;;5.88;3.00;;;;;;;;;;4973731;28;20027;-64
2023/04/17 06:01:21;;;;;;;5.50;2.80;;;;;;;;;;4973365;28;20114;-65
2023/04/17 06:03:46;;;;;;;5.97;2.67;;;;;;;;;;4974095;28;20023;-64
2023/04/17 06:06:12;;;;;;;5.45;2.92;;;;;;;;;;4971691;28;20101;-70
2023/04/17 06:08:37;;;;;;;5.50;2.93;;;;;;;;;;4968743;28;20015;-65
2023/04/17 06:11:02;;;;;;;6.72;3.33;;;;;;;;;;4972292;28;20027;-66
2023/04/17 06:13:27;;;;;;;6.50;3.07;;;;;;;;;;4954535;28;20041;-65
2023/04/17 06:15:52;;;;;;;7.57;3.40;;;;;;;;;;4963961;28;20090;-65
2023/04/17 06:18:17;;;;;;;8.00;3.70;;;;;;;;;;4962362;28;20039;-63
2023/04/17 06:20:43;;;;;;;5.80;3.03;;;;;;;;;;4954161;28;20027;-64
2023/04/17 06:23:08;;;;;;;6.43;3.13;;;;;;;;;;4953956;28;20028;-63
2023/04/17 06:25:33;;;;;;;6.50;3.42;;;;;;;;;;4959807;28;20109;-63
2023/04/17 06:28:00;;;;;;;7.03;2.70;;;;;;;;;;4972170;28;20487;-67
2023/04/17 06:30:25;;;;;;;6.27;3.40;;;;;;;;;;4967949;28;20033;-66
2023/04/17 06:32:50;;;;;;;6.60;3.20;;;;;;;;;;4957381;28;20015;-67
2023/04/17 06:35:15;;;;;;;7.45;3.35;;;;;;;;;;4957500;28;20027;-66
2023/04/17 06:37:40;;;;;;;6.63;3.55;;;;;;;;;;4966681;28;20022;-67
2023/04/17 06:40:06;;;;;;;5.85;3.20;;;;;;;;;;4971673;28;20046;-65
2023/04/17 06:42:34;;;;;;;6.13;3.17;;;;;;;;;;4953419;28;20023;-64
2023/04/17 06:44:59;;;;;;;6.45;3.45;;;;;;;;;;4954710;28;20034;-67
2023/04/17 06:47:24;;;;;;;7.63;4.23;;;;;;;;;;4971944;28;20333;-67
2023/04/17 06:49:49;;;;;;;8.27;4.00;;;;;;;;;;4971840;28;20462;-65
2023/04/17 06:52:15;;;;;;;6.83;3.90;;;;;;;;;;4962516;28;20038;-66
2023/04/17 06:54:40;;;;;;;7.97;4.30;;;;;;;;;;4953508;28;20081;-70
2023/04/17 06:57:08;;;;;;;7.07;4.03;;;;;;;;;;4969035;28;20034;-66
2023/04/17 06:59:34;;;;;;;7.88;4.25;;;;;;;;;;4960037;28;20390;-65
2023/04/17 07:02:00;;;;;;;7.95;4.25;;;;;;;;;;4957350;28;20019;-68
2023/04/17 07:04:26;;;;;;;7.15;4.00;;;;;;;;;;4972126;28;20101;-64
2023/04/17 07:06:51;;;;;;;8.52;4.03;;;;;;;;;;4973789;28;20102;-65
2023/04/17 07:09:16;;;;;;;7.30;4.20;;;;;;;;;;4971914;28;20106;-64
2023/04/17 07:11:41;;;;;;;7.30;3.73;;;;;;;;;;4971772;28;20039;-65
2023/04/17 07:14:06;;;;;;;6.70;3.77;;;;;;;;;;4973036;28;20033;-64
2023/04/17 07:16:32;;;;;;;8.57;4.80;;;;;;;;;;4975826;28;20046;-64
2023/04/17 07:18:57;;;;;;;7.72;4.30;;;;;;;;;;4973679;28;20029;-65
2023/04/17 07:21:22;;;;;;;7.70;4.50;;;;;;;;;;4968654;28;20035;-66
2023/04/17 07:23:48;;;;;;;8.07;4.57;;;;;;;;;;4978027;28;20072;-64
2023/04/17 07:26:13;;;;;;;7.43;4.50;;;;;;;;;;4971914;28;20435;-64
2023/04/17 07:28:38;;;;;;;7.50;4.73;;;;;;;;;;4972739;28;20058;-65
2023/04/17 07:31:07;;;;;;;8.13;4.93;;;;;;;;;;4971813;28;20053;-67
2023/04/17 07:33:32;;;;;;;7.30;3.95;;;;;;;;;;4970679;28;20022;-65
2023/04/17 07:35:57;;;;;;;6.35;3.70;;;;;;;;;;4972080;28;20123;-67
2023/04/17 07:38:22;;;;;;;6.60;4.03;;;;;;;;;;4952911;28;20074;-63
2023/04/17 07:40:47;;;;;;;6.15;3.40;;;;;;;;;;4953541;28;20067;-65
2023/04/17 07:43:13;;;;;;;5.50;3.17;;;;;;;;;;4952534;28;20368;-65
2023/04/17 07:45:38;;;;;;;5.78;3.05;;;;;;;;;;4969775;28;20026;-65
2023/04/17 07:48:03;;;;;;;5.05;3.10;;;;;;;;;;4961123;28;20019;-64
2023/04/17 07:50:28;;;;;;;5.20;3.13;;;;;;;;;;4968845;28;20115;-64
2023/04/17 07:52:54;;;;;;;6.37;3.23;;;;;;;;;;4952802;28;20043;-65
2023/04/17 07:55:19;;;;;;;5.25;2.90;;;;;;;;;;4967876;28;21001;-64
2023/04/17 07:57:45;;;;;;;5.93;3.42;;;;;;;;;;4957553;28;20027;-66
2023/04/17 08:00:13;;;;;;;5.85;3.38;;;;;;;;;;4953466;28;20443;-65
2023/04/17 08:02:39;;;;;;;5.28;2.92;;;;;;;;;;4953696;28;20497;-64
2023/04/17 08:05:05;;;;;;;5.15;2.90;;;;;;;;;;4968727;28;20034;-65
2023/04/17 08:07:30;;;;;;;5.35;2.97;;;;;;;;;;4978038;28;20030;-66
2023/04/17 08:09:56;;;;;;;6.25;3.13;;;;;;;;;;4986007;28;20066;-65
2023/04/17 08:12:21;;;;;;;4.88;2.67;;;;;;;;;;4982165;28;20015;-64
2023/04/17 08:14:47;;;;;;;4.97;2.65;;;;;;;;;;4965616;28;20022;-67
2023/04/17 08:17:12;;;;;;;5.60;2.80;;;;;;;;;;4961816;28;20038;-65
2023/04/17 08:19:37;;;;;;;4.75;2.55;;;;;;;;;;4952850;28;20019;-63
2023/04/17 08:22:03;;;;;;;4.45;2.47;;;;;;;;;;4952887;28;20046;-65
2023/04/17 08:24:29;;;;;;;6.30;2.92;;;;;;;;;;4960028;28;20030;-67
2023/04/17 08:26:55;;;;;;;5.00;2.80;;;;;;;;;;4965312;28;20027;-64
2023/04/17 08:29:20;;;;;;;5.65;2.85;;;;;;;;;;4953579;28;20055;-68
2023/04/17 08:31:45;;;;;;;5.20;2.80;;;;;;;;;;4952804;28;20034;-64
2023/04/17 08:34:10;;;;;;;4.95;2.40;;;;;;;;;;4964202;28;20039;-65
2023/04/17 08:36:36;;;;;;;4.32;1.90;;;;;;;;;;4970271;28;20379;-65
2023/04/17 08:39:01;;;;;;;3.95;1.90;;;;;;;;;;4964104;28;20168;-63
2023/04/17 08:41:33;;;;;;;4.30;1.87;;;;;;;;;;4960128;28;20042;-67
2023/04/17 08:43:59;;;;;;;6.00;2.47;;;;;;;;;;4962524;28;20070;-65
2023/04/17 08:46:24;;;;;;;5.78;2.20;;;;;;;;;;4959750;28;20543;-66
2023/04/17 08:48:50;;;;;;;8.35;2.78;;;;;;;;;;4952464;28;20031;-64
2023/04/17 08:51:15;;;;;;;6.22;3.30;;;;;;;;;;4952317;28;20027;-66
2023/04/17 08:53:40;;;;;;;5.45;3.00;;;;;;;;;;4959648;28;20034;-72
2023/04/17 08:56:06;;;;;;;7.00;2.63;;;;;;;;;;4971533;28;20025;-64
2023/04/17 08:58:32;;;;;;;5.13;2.63;;;;;;;;;;4970355;28;20027;-65
2023/04/17 09:01:06;;;;;;;8.50;2.85;;;;;;;;;;4955970;28;20114;-66
2023/04/17 09:03:38;;;;;;;7.35;2.97;;;;;;;;;;4961667;28;20089;-67
2023/04/17 09:06:03;;;;;;;;;;;;;;;;;;4967051;28;20027;-67
2023/04/17 09:08:28;;;;;;;5.13;2.72;;;;;;;;;;4956608;28;19981;-64
2023/04/17 09:10:54;;;;;;;6.37;2.90;;;;;;;;;;4956815;28;20054;-65
2023/04/17 09:13:20;;;;;;;7.25;3.45;;;;;;;;;;4970359;28;20502;-66
2023/04/17 09:15:46;;;;;;;6.45;3.35;;;;;;;;;;4968720;28;20031;-66
2023/04/17 09:18:25;;;;;;;7.03;3.60;;;;;;;;;;4957192;28;20033;-64
2023/04/17 09:20:50;;;;;;;7.57;3.78;;;;;;;;;;4974653;28;20015;-64
2023/04/17 09:23:16;;;;;;;8.40;4.10;;;;;;;;;;4975062;28;20023;-66
2023/04/17 09:25:41;;;;;;;8.23;4.28;;;;;;;;;;4976080;28;20502;-68
2023/04/17 09:28:11;;;;;;;8.63;3.97;;;;;;;;;;4974566;28;20019;-66
2023/04/17 09:30:37;;;;;;;7.05;3.90;;;;;;;;;;4975166;28;20030;-65
2023/04/17 09:33:03;;;;;;;10.57;5.00;;;;;;;;;;4958128;28;20406;-67
2023/04/17 09:35:28;;;;;;;7.90;4.50;;;;;;;;;;4955143;28;20031;-64
2023/04/17 09:37:54;;;;;;;8.23;4.33;;;;;;;;;;4955354;28;20031;-66
2023/04/17 09:40:20;;;;;;;8.45;4.82;;;;;;;;;;4972977;28;20077;-66
2023/04/17 09:42:58;;;;;;;7.57;4.05;;;;;;;;;;4960319;28;20534;-64
2023/04/17 09:45:24;;;;;;;9.95;4.18;;;;;;;;;;4956101;28;20031;-65
2023/04/17 09:47:51;;;;;;;6.50;4.00;;;;;;;;;;4954553;28;20022;-68
2023/04/17 09:50:17;;;;;;;7.55;4.50;;;;;;;;;;4972280;28;20546;-65
2023/04/17 09:52:42;;;;;;;9.13;4.60;;;;;;;;;;4974483;28;20058;-65
2023/04/17 09:55:09;;;;;;;12.13;5.20;;;;;;;;;;4974923;28;20419;-66
2023/04/17 09:57:36;;;;;;;8.27;4.97;;;;;;;;;;4976065;28;20022;-65
2023/04/17 10:00:04;;;;;;;8.68;4.93;;;;;;;;;;4973270;28;20092;-66
2023/04/17 10:02:30;;;;;;;9.30;6.15;;;;;;;;;;4974310;28;20047;-63
2023/04/17 10:04:55;;;;;;;9.48;6.15;;;;;;;;;;4975731;28;20665;-65
2023/04/17 10:07:21;;;;;;;9.82;6.47;;;;;;;;;;4972959;28;20050;-66
2023/04/17 10:09:46;;;;;;;10.48;6.65;;;;;;;;;;4972656;28;20038;-65
2023/04/17 10:12:15;;;;;;;9.50;6.83;;;;;;;;;;4965677;28;20035;-66
2023/04/17 10:14:43;;;;;;;11.27;7.55;;;;;;;;;;4973918;28;20482;-66
2023/04/17 10:17:21;;;;;;;8.50;6.15;;;;;;;;;;4972914;28;20475;-67
2023/04/17 10:19:46;;;;;;;;;;;;;;;;;;4973293;28;20030;-67
2023/04/17 10:22:14;;;;;;;10.10;6.43;;;;;;;;;;4963951;28;19910;-65
2023/04/17 10:24:40;;;;;;;10.57;6.68;;;;;;;;;;4954128;28;20451;-65
2023/04/17 10:27:23;;;;;;;11.27;7.38;;;;;;;;;;4953813;28;20023;-67
2023/04/17 10:29:52;;;;;;;10.43;6.32;;;;;;;;;;4965294;28;20092;-66
2023/04/17 10:32:17;;;;;;;8.85;6.43;;;;;;;;;;4962767;28;20036;-65
2023/04/17 10:34:42;;;;;;;9.10;6.83;;;;;;;;;;4953784;28;20028;-68
2023/04/17 10:37:13;;;;;;;10.55;7.10;;;;;;;;;;4953374;28;20031;-64
2023/04/17 10:39:48;;;;;;;10.82;6.65;;;;;;;;;;4964044;28;20118;-66
2023/04/17 10:42:18;;;;;;;11.10;7.45;;;;;;;;;;4962938;28;20023;-64
2023/04/17 10:44:44;;;;;;;10.68;6.75;;;;;;;;;;4953916;28;20368;-65
2023/04/17 10:47:09;;;;;;;10.77;6.32;;;;;;;;;;4953627;28;20066;-67
2023/04/17 10:49:48;;;;;;;8.85;6.43;;;;;;;;;;4962741;28;20030;-69
2023/04/17 10:52:31;;;;;;;11.00;5.93;;;;;;;;;;4962698;28;20066;-67
2023/04/17 10:55:06;;;;;;;9.65;5.43;;;;;;;;;;4964994;28;20032;-65
2023/04/17 10:57:50;;;;;;;8.35;5.70;;;;;;;;;;4971782;28;20443;-65
2023/04/17 11:00:16;;;;;;;8.05;5.28;;;;;;;;;;4963220;28;20030;-73
2023/04/17 11:02:44;;;;;;;8.02;5.57;;;;;;;;;;4967441;28;20023;-67
2023/04/17 11:05:09;;;;;;;8.57;5.63;;;;;;;;;;4952365;28;20054;-66
2023/04/17 11:07:35;;;;;;;9.63;5.85;;;;;;;;;;4965757;28;20490;-69
2023/04/17 11:10:05;;;;;;;9.13;5.72;;;;;;;;;;4968591;28;20023;-70
2023/04/17 11:12:30;;;;;;;9.30;6.03;;;;;;;;;;4972791;28;20015;-66
2023/04/17 11:15:00;;;;;;;10.67;6.27;;;;;;;;;;4972678;28;20090;-65
2023/04/17 11:17:25;;;;;;;9.18;5.88;;;;;;;;;;4970540;28;20027;-68
2023/04/17 11:19:52;;;;;;;9.95;6.70;;;;;;;;;;4957276;28;20030;-68
2023/04/17 11:22:18;;;;;;;11.65;5.97;;;;;;;;;;4969351;28;20089;-68
2023/04/17 11:24:43;;;;;;;8.88;4.97;;;;;;;;;;4953327;28;20097;-68
2023/04/17 11:27:08;;;;;;;7.30;4.40;;;;;;;;;;4967441;28;20027;-64
2023/04/17 11:29:33;;;;;;;8.20;4.72;;;;;;;;;;4959508;28;20030;-68
2023/04/17 11:32:00;;;;;;;7.97;5.22;;;;;;;;;;4953254;28;20027;-65
2023/04/17 11:34:28;;;;;;;10.13;5.72;;;;;;;;;;4968639;28;20058;-64
2023/04/17 11:36:55;;;;;;;8.57;5.60;;;;;;;;;;4956928;28;20028;-69
2023/04/17 11:39:21;;;;;;;8.18;5.47;;;;;;;;;;4953477;28;20408;-72
2023/04/17 11:41:46;;;;;;;9.00;5.50;;;;;;;;;;4953640;28;20392;-67
2023/04/17 11:44:12;;;;;;;8.33;5.20;;;;;;;;;;4968574;28;20027;-68
2023/04/17 11:46:37;;;;;;;9.43;5.97;;;;;;;;;;4962456;28;20027;-64
2023/04/17 11:49:03;;;;;;;9.63;6.00;;;;;;;;;;4953426;28;20420;-65
2023/04/17 11:51:30;;;;;;;9.98;6.53;;;;;;;;;;4972830;28;20031;-65
2023/04/17 11:53:56;;;;;;;10.15;6.72;;;;;;;;;;4971529;28;20051;-66
2023/04/17 11:56:27;;;;;;;11.20;6.90;;;;;;;;;;4963103;28;20528;-67
2023/04/17 11:58:53;;;;;;;10.90;6.90;;;;;;;;;;4970411;28;21017;-69
2023/04/17 12:01:19;;;;;;;11.63;7.10;;;;;;;;;;4961707;28;20033;-66
2023/04/17 12:03:46;;;;;;;11.18;6.78;;;;;;;;;;4952980;28;20054;-67
2023/04/17 12:06:12;;;;;;;10.10;6.40;;;;;;;;;;4956373;28;20503;-65
2023/04/17 12:08:44;;;;;;;10.00;6.65;;;;;;;;;;4968572;28;20038;-65
2023/04/17 12:11:09;;;;;;;;;;;;;;;;;;4963017;28;20495;-65
2023/04/17 12:13:34;;;;;;;8.23;4.70;;;;;;;;;;4968160;28;19925;-67
2023/04/17 12:16:00;;;;;;;7.80;5.28;;;;;;;;;;4971692;28;20391;-66
2023/04/17 12:18:25;;;;;;;8.50;5.53;;;;;;;;;;4971763;28;20019;-66
2023/04/17 12:20:51;;;;;;;9.13;6.25;;;;;;;;;;4969587;28;20023;-72
2023/04/17 12:23:20;;;;;;;8.95;5.93;;;;;;;;;;4964717;28;20023;-67
2023/04/17 12:25:45;;;;;;;10.00;6.03;;;;;;;;;;4966185;28;20487;-68
2023/04/17 12:28:10;;;;;;;8.75;5.75;;;;;;;;;;4967069;28;20062;-68
2023/04/17 12:30:38;;;;;;;9.23;5.20;;;;;;;;;;4968349;28;20178;-69
2023/04/17 12:33:05;;;;;;;10.40;5.35;;;;;;;;;;4967727;28;20433;-66
2023/04/17 12:35:30;;;;;;;9.57;4.80;;;;;;;;;;4969411;28;20111;-70
2023/04/17 12:37:56;;;;;;;9.38;4.88;;;;;;;;;;4967076;28;20100;-66
2023/04/17 12:40:21;;;;;;;7.67;4.40;;;;;;;;;;4971040;28;20561;-70
2023/04/17 12:42:47;;;;;;;9.40;4.68;;;;;;;;;;4972133;28;20031;-69
2023/04/17 12:45:13;;;;;;;8.60;4.63;;;;;;;;;;4971912;28;20541;-65
2023/04/17 12:47:38;;;;;;;9.95;4.90;;;;;;;;;;4965932;28;20050;-69
2023/04/17 12:50:04;;;;;;;7.60;4.63;;;;;;;;;;4968287;28;20031;-68
2023/04/17 12:52:29;;;;;;;9.88;4.80;;;;;;;;;;4961905;28;20130;-66
2023/04/17 12:54:58;;;;;;;8.10;4.70;;;;;;;;;;4964189;28;20030;-68
2023/04/17 12:57:23;;;;;;;7.88;4.75;;;;;;;;;;4968392;28;20525;-69
2023/04/17 12:59:49;;;;;;;11.52;4.90;;;;;;;;;;4968412;28;20054;-67
2023/04/17 13:02:16;;;;;;;9.30;4.93;;;;;;;;;;4963636;28;20523;-66
2023/04/17 13:04:41;;;;;;;8.55;5.28;;;;;;;;;;4970662;28;20034;-66
2023/04/17 13:07:06;;;;;;;9.73;5.07;;;;;;;;;;4961177;28;20490;-67
2023/04/17 13:09:31;;;;;;;11.02;5.40;;;;;;;;;;4969461;28;20035;-65
2023/04/17 13:11:57;;;;;;;9.38;5.05;;;;;;;;;;4967939;28;20014;-68
2023/04/17 13:14:22;;;;;;;11.23;5.70;;;;;;;;;;4962064;28;20042;-69
2023/04/17 13:16:49;;;;;;;10.50;5.82;;;;;;;;;;4969868;28;20475;-67
2023/04/17 13:19:14;;;;;;;9.68;5.40;;;;;;;;;;4964665;28;20031;-65
2023/04/17 13:21:39;;;;;;;11.30;5.00;;;;;;;;;;4965854;28;20360;-67
2023/04/17 13:24:05;;;;;;;8.63;5.13;;;;;;;;;;4969317;28;20080;-65
2023/04/17 13:26:30;;;;;;;9.02;4.88;;;;;;;;;;4965593;28;20038;-67
2023/04/17 13:28:55;;;;;;;10.40;5.77;;;;;;;;;;4967503;28;20058;-70
2023/04/17 13:31:22;;;;;;;9.45;5.32;;;;;;;;;;4974442;28;20026;-71
2023/04/17 13:33:48;;;;;;;7.95;4.97;;;;;;;;;;4977494;28;20034;-69
2023/04/17 13:36:13;;;;;;;8.03;5.10;;;;;;;;;;4981970;28;20118;-72
2023/04/17 13:38:38;;;;;;;8.68;5.70;;;;;;;;;;4982360;28;20086;-70
2023/04/17 13:41:03;;;;;;;11.80;5.67;;;;;;;;;;4977190;28;20058;-69
2023/04/17 13:43:28;;;;;;;10.23;5.47;;;;;;;;;;4980099;28;20019;-72
2023/04/17 13:45:55;;;;;;;9.27;6.22;;;;;;;;;;4972472;28;20042;-67
2023/04/17 13:48:20;;;;;;;9.90;5.95;;;;;;;;;;4968978;28;20066;-67
2023/04/17 13:50:45;;;;;;;9.02;5.55;;;;;;;;;;4968880;28;20065;-67
2023/04/17 13:53:12;;;;;;;12.27;6.53;;;;;;;;;;4967263;28;20035;-75
2023/04/17 13:55:37;;;;;;;10.40;6.90;;;;;;;;;;4970503;28;20025;-66
2023/04/17 13:58:02;;;;;;;9.65;6.40;;;;;;;;;;4970120;28;20019;-66
2023/04/17 14:00:27;;;;;;;9.02;5.68;;;;;;;;;;4969682;28;20011;-67
2023/04/17 14:02:53;;;;;;;10.98;5.90;;;;;;;;;;4968582;28;20173;-65
2023/04/17 14:05:18;;;;;;;10.07;5.50;;;;;;;;;;4968918;28;20483;-71
2023/04/17 14:07:43;;;;;;;9.88;6.10;;;;;;;;;;4968572;28;20121;-68
2023/04/17 14:10:08;;;;;;;9.20;5.82;;;;;;;;;;4970039;28;20046;-68
2023/04/17 14:12:34;;;;;;;10.48;6.38;;;;;;;;;;4970559;28;20380;-67
2023/04/17 14:14:59;;;;;;;11.50;6.68;;;;;;;;;;4969286;28;20116;-64
2023/04/17 14:17:24;;;;;;;8.90;5.63;;;;;;;;;;4966332;28;20029;-70
2023/04/17 14:19:49;;;;;;;10.87;6.40;;;;;;;;;;4958796;28;20031;-67
2023/04/17 14:22:15;;;;;;;10.98;6.40;;;;;;;;;;4968197;28;20018;-66
2023/04/17 14:24:40;;;;;;;12.57;6.75;;;;;;;;;;4965479;28;20466;-66
2023/04/17 14:27:05;;;;;;;15.18;8.93;;;;;;;;;;4971856;28;20486;-65
2023/04/17 14:29:30;;;;;;;12.95;8.40;;;;;;;;;;4961691;28;20027;-66
2023/04/17 14:31:55;;;;;;;11.68;7.32;;;;;;;;;;4969019;28;20014;-67
2023/04/17 14:34:20;;;;;;;10.03;6.47;;;;;;;;;;4971458;28;20065;-65